createdAt,value
2022-10-18T00:02:22.706Z,99481.53
2022-10-18T00:04:49.159Z,99476.38
2022-10-18T00:07:15.516Z,99481.03
2022-10-18T00:09:41.990Z,99478.56
2022-10-18T00:12:08.405Z,99479.41
2022-10-18T00:14:34.804Z,99490.13
2022-10-18T00:17:02.071Z,99483.03
2022-10-18T00:19:29.411Z,99485.25
2022-10-18T00:21:56.062Z,99495.66
2022-10-18T00:24:22.428Z,99493.72
2022-10-18T00:26:48.810Z,99500.59
2022-10-18T00:29:16.142Z,99500.91
2022-10-18T00:31:43.590Z,99503.63
2022-10-18T00:34:13.392Z,99496.84
2022-10-18T00:36:40.069Z,99499.06
2022-10-18T00:39:07.711Z,99495.03
2022-10-18T00:41:36.398Z,99492.00
2022-10-18T00:44:06.472Z,99489.56
2022-10-18T00:46:38.092Z,99484.91
2022-10-18T00:49:09.347Z,99492.28
2022-10-18T00:51:44.198Z,99493.09
2022-10-18T00:54:12.263Z,99494.66
2022-10-18T00:56:38.933Z,99493.53
2022-10-18T00:59:05.582Z,99488.88
2022-10-18T01:01:31.972Z,99491.59
2022-10-18T01:03:58.563Z,99487.47
2022-10-18T01:06:28.060Z,99493.44
2022-10-18T01:09:10.870Z,99501.34
2022-10-18T01:12:10.703Z,99500.72
2022-10-18T01:15:08.470Z,99503.16
2022-10-18T01:17:53.981Z,99497.19
2022-10-18T01:20:37.860Z,99488.50
2022-10-18T01:23:13.227Z,99492.53
2022-10-18T01:25:39.544Z,99486.28
2022-10-18T01:28:38.175Z,99487.88
2022-10-18T01:31:17.636Z,99474.53
2022-10-18T01:33:59.787Z,99479.69
2022-10-18T01:36:34.555Z,99482.97
2022-10-18T01:39:05.776Z,99487.31
2022-10-18T01:41:34.735Z,99499.34
2022-10-18T01:44:04.564Z,99499.03
2022-10-18T01:46:31.047Z,99490.53
2022-10-18T01:48:58.586Z,99490.78
2022-10-18T01:51:27.800Z,99491.78
2022-10-18T01:53:54.861Z,99482.47
2022-10-18T01:56:25.095Z,99484.91
2022-10-18T01:59:28.889Z,99479.47
2022-10-18T02:02:07.231Z,99481.06
2022-10-18T02:04:53.616Z,99483.81
2022-10-18T02:08:12.161Z,99487.34
2022-10-18T02:10:49.731Z,99484.91
2022-10-18T02:13:20.103Z,99487.34
2022-10-18T02:15:51.253Z,99489.28
2022-10-18T02:18:23.484Z,99489.78
2022-10-18T02:20:51.687Z,99489.47
2022-10-18T02:23:23.048Z,99481.25
2022-10-18T02:25:50.351Z,99481.25
2022-10-18T02:28:16.841Z,99482.88
2022-10-18T02:31:17.529Z,99475.00
2022-10-18T02:34:23.823Z,99477.22
2022-10-18T02:37:01.394Z,99469.03
2022-10-18T02:39:34.542Z,99469.53
2022-10-18T02:42:01.276Z,99470.66
2022-10-18T02:44:27.708Z,99477.41
2022-10-18T02:46:54.314Z,99473.88
2022-10-18T02:49:20.660Z,99470.03
2022-10-18T02:51:47.017Z,99476.59
2022-10-18T02:54:13.403Z,99484.50
2022-10-18T02:56:39.780Z,99472.75
2022-10-18T02:59:07.383Z,99461.84
2022-10-18T03:01:35.994Z,99470.34
2022-10-18T03:04:03.712Z,99469.22
2022-10-18T03:06:30.056Z,99462.66
2022-10-18T03:08:56.505Z,99464.06
2022-10-18T03:11:23.040Z,99466.22
2022-10-18T03:13:50.963Z,99462.66
2022-10-18T03:16:17.929Z,99466.50
2022-10-18T03:18:44.470Z,99459.09
2022-10-18T03:21:10.829Z,99463.47
2022-10-18T03:23:37.228Z,99455.88
2022-10-18T03:26:05.185Z,99460.53
2022-10-18T03:29:04.518Z,99458.09
2022-10-18T03:46:38.669Z,99458.59
2022-10-18T04:03:07.739Z,99458.19
2022-10-18T04:05:34.613Z,99448.69
2022-10-18T04:08:00.958Z,99448.97
2022-10-18T04:10:27.504Z,99448.47
2022-10-18T04:12:54.131Z,99451.00
2022-10-18T04:15:20.811Z,99453.41
2022-10-18T04:17:47.276Z,99449.66
2022-10-18T04:20:13.972Z,99453.50
2022-10-18T04:22:40.795Z,99457.34
2022-10-18T04:25:07.590Z,99458.16
2022-10-18T04:27:34.172Z,99462.81
2022-10-18T04:30:00.852Z,99468.88
2022-10-18T04:32:28.991Z,99474.34
2022-10-18T04:34:55.369Z,99459.56
2022-10-18T04:37:21.793Z,99465.03
2022-10-18T04:39:51.223Z,99466.03
2022-10-18T04:42:20.915Z,99462.13
2022-10-18T04:44:47.334Z,99455.75
2022-10-18T04:47:13.734Z,99456.38
2022-10-18T04:49:40.147Z,99463.09
2022-10-18T04:52:06.642Z,99456.41
2022-10-18T04:54:33.065Z,99468.56
2022-10-18T04:56:59.475Z,99468.16
2022-10-18T04:59:25.813Z,99462.91
2022-10-18T05:01:52.282Z,99473.22
2022-10-18T05:04:18.754Z,99466.75
2022-10-18T05:06:45.108Z,99470.06
2022-10-18T05:09:11.442Z,99464.72
2022-10-18T05:11:38.000Z,99474.03
2022-10-18T05:14:04.832Z,99476.78
2022-10-18T05:16:32.330Z,99473.00
2022-10-18T05:18:58.714Z,99471.41
2022-10-18T05:21:25.185Z,99476.13
2022-10-18T05:23:55.781Z,99477.84
2022-10-18T05:26:22.201Z,99471.78
2022-10-18T05:28:50.448Z,99468.75
2022-10-18T05:31:17.330Z,99469.94
2022-10-18T05:33:43.686Z,99467.91
2022-10-18T05:36:10.679Z,99469.13
2022-10-18T05:38:43.980Z,99463.72
2022-10-18T05:41:11.381Z,99464.94
2022-10-18T05:43:38.481Z,99467.66
2022-10-18T05:46:07.261Z,99471.50
2022-10-18T05:48:36.052Z,99468.28
2022-10-18T05:51:02.628Z,99474.84
2022-10-18T05:53:36.588Z,99474.34
2022-10-18T05:56:03.923Z,99473.81
2022-10-18T05:58:30.387Z,99477.97
2022-10-18T06:01:04.328Z,99481.50
2022-10-18T06:03:31.029Z,99461.56
2022-10-18T06:06:08.496Z,99473.31
2022-10-18T06:08:35.257Z,99470.88
2022-10-18T06:11:15.975Z,99468.44
2022-10-18T06:13:43.965Z,99471.88
2022-10-18T06:16:11.879Z,99469.69
2022-10-18T06:18:38.866Z,99474.34
2022-10-18T06:21:05.758Z,99477.56
2022-10-18T06:23:32.416Z,99473.13
2022-10-18T06:26:04.187Z,99483.47
2022-10-18T06:28:30.995Z,99481.47
2022-10-18T06:30:57.872Z,99482.69
2022-10-18T06:33:24.899Z,99489.00
2022-10-18T06:36:01.704Z,99487.69
2022-10-18T06:38:29.160Z,99489.63
2022-10-18T06:40:57.108Z,99491.09
2022-10-18T06:43:24.345Z,99497.19
2022-10-18T06:45:51.552Z,99492.38
2022-10-18T06:50:59.538Z,99503.63
2022-10-18T06:53:28.466Z,99503.03
2022-10-18T06:56:02.898Z,99507.88
2022-10-18T06:58:31.971Z,99515.28
2022-10-18T07:00:58.939Z,99511.13
2022-10-18T07:03:26.246Z,99508.91
2022-10-18T07:05:52.652Z,99509.41
2022-10-18T07:08:19.096Z,99510.44
2022-10-18T07:10:53.140Z,99506.56
2022-10-18T07:13:31.961Z,99504.84
2022-10-18T07:16:11.690Z,99509.09
2022-10-18T07:18:44.524Z,99500.28
2022-10-18T07:21:14.171Z,99508.66
2022-10-18T07:23:42.850Z,99505.81
2022-10-18T07:26:25.335Z,99504.91
2022-10-18T07:28:55.706Z,99513.19
2022-10-18T07:31:22.914Z,99516.63
2022-10-18T07:33:49.531Z,99524.22
2022-10-18T07:36:16.024Z,99520.25
2022-10-18T07:38:42.489Z,99518.81
2022-10-18T07:41:11.431Z,99521.97
2022-10-18T07:43:42.234Z,99522.56
2022-10-18T07:46:08.814Z,99520.69
2022-10-18T07:48:35.206Z,99525.44
2022-10-18T07:51:02.209Z,99518.88
2022-10-18T07:53:29.337Z,99515.72
2022-10-18T07:56:01.462Z,99508.53
2022-10-18T07:58:32.062Z,99500.34
2022-10-18T08:01:03.271Z,99509.13
2022-10-18T08:03:29.667Z,99506.09
2022-10-18T08:05:56.469Z,99517.09
2022-10-18T08:08:23.773Z,99510.25
2022-10-18T08:10:50.665Z,99521.25
2022-10-18T08:13:17.467Z,99510.31
2022-10-18T08:15:44.649Z,99515.03
2022-10-18T08:18:11.604Z,99525.72
2022-10-18T08:20:43.237Z,99533.47
2022-10-18T08:23:10.125Z,99532.69
2022-10-18T08:28:07.851Z,99535.94
2022-10-18T08:30:35.674Z,99540.31
2022-10-18T08:33:03.093Z,99546.13
2022-10-18T08:35:29.538Z,99547.56
2022-10-18T08:37:55.904Z,99548.69
2022-10-18T08:40:22.439Z,99548.22
2022-10-18T08:43:22.494Z,99544.97
2022-10-18T08:45:51.047Z,99537.22
2022-10-18T08:48:27.412Z,99541.44
2022-10-18T08:50:57.184Z,99540.16
2022-10-18T08:53:45.439Z,99537.09
2022-10-18T08:56:15.642Z,99547.81
2022-10-18T08:58:46.497Z,99549.44
2022-10-18T09:01:50.667Z,99548.44
2022-10-18T09:04:54.925Z,99558.66
2022-10-18T09:07:37.154Z,99552.84
2022-10-18T09:10:18.234Z,99560.75
2022-10-18T09:12:53.887Z,99547.31
2022-10-18T09:15:25.501Z,99556.22
2022-10-18T09:18:18.373Z,99552.97
2022-10-18T09:21:20.298Z,99560.38
2022-10-18T09:24:03.264Z,99567.16
2022-10-18T09:26:39.005Z,99566.84
2022-10-18T09:29:24.079Z,99578.94
2022-10-18T09:32:11.392Z,99573.50
2022-10-18T09:34:44.788Z,99566.25
2022-10-18T09:37:18.496Z,99575.22
2022-10-18T09:39:46.683Z,99576.31
2022-10-18T09:42:19.503Z,99584.97
2022-10-18T09:44:51.360Z,99579.00
2022-10-18T09:47:34.672Z,99579.66
2022-10-18T09:50:06.243Z,99588.06
2022-10-18T09:52:42.022Z,99586.47
2022-10-18T09:55:20.128Z,99592.75
2022-10-18T09:57:54.468Z,99576.56
2022-10-18T10:00:25.788Z,99585.63
2022-10-18T10:02:52.277Z,99586.09
2022-10-18T10:05:19.072Z,99581.44
2022-10-18T10:07:47.711Z,99589.69
2022-10-18T10:10:18.919Z,99584.19
2022-10-18T10:12:46.123Z,99585.00
2022-10-18T10:15:17.920Z,99585.66
2022-10-18T10:17:52.850Z,99582.25
2022-10-18T10:20:30.468Z,99581.38
2022-10-18T10:23:07.281Z,99591.53
2022-10-18T10:25:38.047Z,99594.28
2022-10-18T10:28:13.253Z,99592.28
2022-10-18T10:30:39.731Z,99589.41
2022-10-18T10:33:26.538Z,99589.47
2022-10-18T10:35:59.582Z,99585.19
2022-10-18T10:38:28.662Z,99584.50
2022-10-18T10:40:55.604Z,99584.50
2022-10-18T10:43:42.791Z,99593.44
2022-10-18T10:46:15.597Z,99581.81
2022-10-18T10:48:48.242Z,99580.66
2022-10-18T10:51:18.388Z,99582.31
2022-10-18T10:53:57.412Z,99580.56
2022-10-18T10:56:29.923Z,99573.03
2022-10-18T10:59:01.829Z,99574.88
2022-10-18T11:01:33.229Z,99573.09
2022-10-18T11:04:24.939Z,99573.44
2022-10-18T11:07:04.845Z,99569.06
2022-10-18T11:09:42.126Z,99566.09
2022-10-18T11:12:18.827Z,99570.84
2022-10-18T11:14:50.160Z,99573.94
2022-10-18T11:17:31.822Z,99570.38
2022-10-18T11:20:07.244Z,99570.59
2022-10-18T11:22:40.387Z,99564.34
2022-10-18T11:25:14.487Z,99568.16
2022-10-18T11:28:13.300Z,99564.09
2022-10-18T11:30:49.201Z,99566.22
2022-10-18T11:34:08.667Z,99547.66
2022-10-18T11:37:39.660Z,99544.22
2022-10-18T11:42:31.964Z,99546.50
2022-10-18T11:45:03.849Z,99552.66
2022-10-18T11:47:42.239Z,99542.38
2022-10-18T11:50:16.230Z,99536.06
2022-10-18T11:52:52.000Z,99539.34
2022-10-18T11:55:51.411Z,99541.19
2022-10-18T11:58:29.852Z,99550.00
2022-10-18T12:01:12.877Z,99549.91
2022-10-18T12:03:57.513Z,99553.81
2022-10-18T12:06:28.134Z,99549.84
2022-10-18T12:08:59.673Z,99543.78
2022-10-18T12:11:54.880Z,99546.84
2022-10-18T12:14:24.826Z,99544.50
2022-10-18T12:17:02.866Z,99543.91
2022-10-18T12:19:39.557Z,99544.44
2022-10-18T12:22:21.254Z,99532.16
2022-10-18T12:24:47.604Z,99533.50
2022-10-18T12:27:15.885Z,99528.88
2022-10-18T12:30:02.468Z,99531.16
2022-10-18T12:32:36.203Z,99534.72
2022-10-18T12:35:15.739Z,99533.34
2022-10-18T12:37:57.946Z,99536.78
2022-10-18T12:40:36.009Z,99522.72
2022-10-18T12:43:08.668Z,99523.84
2022-10-18T12:45:48.591Z,99522.59
2022-10-18T12:48:30.150Z,99526.72
2022-10-18T12:51:15.247Z,99525.03
2022-10-18T12:53:45.851Z,99529.13
2022-10-18T12:56:27.531Z,99523.19
2022-10-18T12:59:32.185Z,99524.19
2022-10-18T13:02:04.682Z,99524.81
2022-10-18T13:04:32.404Z,99514.59
2022-10-18T13:06:59.655Z,99518.41
2022-10-18T13:09:25.975Z,99524.41
2022-10-18T13:12:01.853Z,99526.22
2022-10-18T13:15:12.596Z,99532.75
2022-10-18T13:18:06.051Z,99527.19
2022-10-18T13:20:57.465Z,99531.78
2022-10-18T13:23:46.543Z,99522.09
2022-10-18T13:26:34.904Z,99521.63
2022-10-18T13:29:40.198Z,99521.13
2022-10-18T13:32:28.439Z,99523.69
2022-10-18T13:34:56.982Z,99525.31
2022-10-18T13:37:25.411Z,99521.03
2022-10-18T13:40:13.264Z,99517.59
2022-10-18T13:42:39.672Z,99520.28
2022-10-18T13:45:31.463Z,99525.09
2022-10-18T13:48:29.969Z,99521.19
2022-10-18T13:51:16.370Z,99515.16
2022-10-18T13:54:12.163Z,99519.56
2022-10-18T13:56:50.764Z,99525.81
2022-10-18T13:59:54.314Z,99526.69
2022-10-18T14:02:51.529Z,99528.09
2022-10-18T14:05:47.053Z,99524.19
2022-10-18T14:08:55.459Z,99533.84
2022-10-18T14:11:30.555Z,99540.34
2022-10-18T14:13:59.874Z,99537.34
2022-10-18T14:16:42.949Z,99531.00
2022-10-18T14:19:21.596Z,99534.56
2022-10-18T14:21:54.016Z,99542.47
2022-10-18T14:24:24.402Z,99541.78
2022-10-18T14:27:12.698Z,99536.84
2022-10-18T14:29:39.660Z,99549.84
2022-10-18T14:32:10.574Z,99545.91
2022-10-18T14:34:38.338Z,99549.91
2022-10-18T14:37:05.758Z,99552.50
2022-10-18T14:39:33.265Z,99554.66
2022-10-18T14:41:59.626Z,99559.75
2022-10-18T14:44:28.993Z,99553.16
2022-10-18T14:46:55.341Z,99555.31
2022-10-18T14:49:21.968Z,99553.13
2022-10-18T14:51:54.639Z,99553.75
2022-10-18T14:54:29.162Z,99558.00
2022-10-18T14:56:59.377Z,99544.28
2022-10-18T14:59:51.540Z,99539.94
2022-10-18T15:02:22.827Z,99542.22
2022-10-18T15:05:09.468Z,99547.59
2022-10-18T15:07:37.052Z,99541.28
2022-10-18T15:10:05.518Z,99543.56
2022-10-18T15:12:41.099Z,99540.66
2022-10-18T15:15:21.833Z,99546.84
2022-10-18T15:17:49.283Z,99546.38
2022-10-18T15:20:29.749Z,99545.41
2022-10-18T15:23:23.741Z,99540.56
2022-10-18T15:25:52.235Z,99542.69
2022-10-18T15:28:30.754Z,99548.72
2022-10-18T15:30:58.447Z,99546.16
2022-10-18T15:33:27.407Z,99550.38
2022-10-18T15:35:54.512Z,99544.72
2022-10-18T15:38:20.807Z,99540.69
2022-10-18T15:40:47.451Z,99548.78
2022-10-18T15:43:22.891Z,99533.59
2022-10-18T15:45:51.945Z,99543.78
2022-10-18T15:48:25.368Z,99539.09
2022-10-18T15:50:57.687Z,99540.91
2022-10-18T15:53:53.266Z,99547.06
2022-10-18T15:56:30.711Z,99539.47
2022-10-18T15:58:58.715Z,99541.25
2022-10-18T16:01:35.748Z,99536.88
2022-10-18T16:04:08.191Z,99541.44
2022-10-18T16:06:37.328Z,99544.84
2022-10-18T16:09:04.300Z,99538.38
2022-10-18T16:11:30.743Z,99551.16
2022-10-18T16:13:59.583Z,99548.72
2022-10-18T16:16:28.822Z,99550.16
2022-10-18T16:18:56.315Z,99554.72
2022-10-18T16:21:34.774Z,99548.25
2022-10-18T16:24:01.353Z,99556.03
2022-10-18T16:26:28.340Z,99547.59
2022-10-18T16:28:57.289Z,99555.06
2022-10-18T16:31:27.128Z,99557.34
2022-10-18T16:33:55.035Z,99558.47
2022-10-18T16:36:24.834Z,99553.59
2022-10-18T16:38:51.631Z,99558.28
2022-10-18T16:41:18.525Z,99557.03
2022-10-18T16:43:46.609Z,99566.41
2022-10-18T16:46:20.145Z,99561.53
2022-10-18T16:48:47.648Z,99563.81
2022-10-18T16:51:14.596Z,99574.00
2022-10-18T16:53:41.356Z,99574.63
2022-10-18T16:56:14.436Z,99577.72
2022-10-18T16:58:41.569Z,99584.69
2022-10-18T17:01:11.785Z,99588.56
2022-10-18T17:03:38.399Z,99590.34
2022-10-18T17:06:04.895Z,99592.28
2022-10-18T17:08:31.375Z,99592.94
2022-10-18T17:10:59.043Z,99596.78
2022-10-18T17:13:26.346Z,99605.69
2022-10-18T17:15:53.433Z,99595.84
2022-10-18T17:18:22.931Z,99600.84
2022-10-18T17:20:49.964Z,99605.03
2022-10-18T17:23:18.703Z,99604.22
2022-10-18T17:25:57.813Z,99606.50
2022-10-18T17:28:33.210Z,99609.41
2022-10-18T17:30:59.610Z,99612.00
2022-10-18T17:33:26.165Z,99609.53
2022-10-18T17:35:52.526Z,99605.19
2022-10-18T17:38:18.903Z,99605.19
2022-10-18T17:40:45.246Z,99607.44
2022-10-18T17:43:13.499Z,99605.03
2022-10-18T17:45:50.967Z,99610.34
2022-10-18T17:48:18.455Z,99596.44
2022-10-18T17:50:45.353Z,99605.28
2022-10-18T17:53:12.903Z,99612.56
2022-10-18T17:55:40.277Z,99616.75
2022-10-18T17:58:06.701Z,99616.25
2022-10-18T18:00:34.359Z,99612.53
2022-10-18T18:03:01.328Z,99626.91
2022-10-18T18:05:33.165Z,99623.97
2022-10-18T18:08:03.918Z,99626.56
2022-10-18T18:10:32.956Z,99627.19
2022-10-18T18:13:01.366Z,99627.84
2022-10-18T18:15:27.820Z,99620.84
2022-10-18T18:17:58.083Z,99628.63
2022-10-18T18:20:26.036Z,99630.88
2022-10-18T18:22:52.479Z,99624.38
2022-10-18T18:25:18.931Z,99630.81
2022-10-18T18:27:45.306Z,99629.03
2022-10-18T18:30:12.119Z,99633.03
2022-10-18T18:32:38.480Z,99629.63
2022-10-18T18:35:05.277Z,99627.00
2022-10-18T18:37:31.684Z,99635.88
2022-10-18T18:39:58.122Z,99625.84
2022-10-18T18:42:24.495Z,99624.84
2022-10-18T18:44:50.861Z,99628.84
2022-10-18T18:47:19.437Z,99624.31
2022-10-18T18:49:45.876Z,99625.19
2022-10-18T18:52:12.304Z,99620.34
2022-10-18T18:54:38.676Z,99622.91
2022-10-18T18:57:06.367Z,99624.34
2022-10-18T18:59:32.761Z,99612.38
2022-10-18T19:01:59.199Z,99627.84
2022-10-18T19:04:26.037Z,99625.72
2022-10-18T19:06:52.492Z,99622.97
2022-10-18T19:09:20.684Z,99620.22
2022-10-18T19:11:48.912Z,99628.28
2022-10-18T19:14:16.702Z,99617.09
2022-10-18T19:17:01.420Z,99622.09
2022-10-18T19:19:30.313Z,99619.97
2022-10-18T19:22:01.384Z,99616.72
2022-10-18T19:24:30.138Z,99611.88
2022-10-18T19:27:02.061Z,99612.81
2022-10-18T19:29:36.896Z,99614.25
2022-10-18T19:32:07.156Z,99612.94
2022-10-18T19:34:36.676Z,99619.84
2022-10-18T19:37:03.796Z,99623.72
2022-10-18T19:39:32.766Z,99618.84
2022-10-18T19:42:03.037Z,99624.13
2022-10-18T19:44:31.780Z,99615.72
2022-10-18T19:46:58.963Z,99617.16
2022-10-18T19:49:26.007Z,99616.66
2022-10-18T19:51:59.747Z,99621.94
2022-10-18T19:54:31.032Z,99622.03
2022-10-18T19:57:01.277Z,99621.53
2022-10-18T19:59:28.585Z,99613.44
2022-10-18T20:01:55.355Z,99616.81
2022-10-18T20:04:21.914Z,99609.19
2022-10-18T20:06:48.384Z,99611.44
2022-10-18T20:09:19.390Z,99611.53
2022-10-18T20:11:47.543Z,99607.50
2022-10-18T20:14:14.017Z,99610.53
2022-10-18T20:16:40.445Z,99612.72
2022-10-18T20:19:07.714Z,99607.25
2022-10-18T20:21:36.385Z,99614.66
2022-10-18T20:24:04.783Z,99624.78
2022-10-18T20:26:31.301Z,99624.63
2022-10-18T20:28:59.520Z,99618.94
2022-10-18T20:31:31.478Z,99622.88
2022-10-18T20:34:01.317Z,99621.41
2022-10-18T20:36:29.685Z,99617.63
2022-10-18T20:38:56.380Z,99612.47
2022-10-18T20:41:27.292Z,99617.94
2022-10-18T20:43:56.142Z,99617.94
2022-10-18T20:46:22.823Z,99614.09
2022-10-18T20:48:50.449Z,99617.94
2022-10-18T20:51:19.443Z,99614.50
2022-10-18T20:53:46.230Z,99617.22
2022-10-18T20:56:26.382Z,99611.84
2022-10-18T20:58:55.359Z,99609.22
2022-10-18T21:01:27.853Z,99605.97
2022-10-18T21:03:56.226Z,99600.59
2022-10-18T21:06:25.435Z,99602.34
2022-10-18T21:09:02.531Z,99604.53
2022-10-18T21:11:30.940Z,99601.94
2022-10-18T21:14:02.524Z,99603.94
2022-10-18T21:16:33.567Z,99599.91
2022-10-18T21:19:17.971Z,99605.38
2022-10-18T21:21:50.169Z,99604.03
2022-10-18T21:24:18.562Z,99604.34
2022-10-18T21:26:46.066Z,99599.19
2022-10-18T21:29:12.840Z,99602.72
2022-10-18T21:31:41.540Z,99602.72
2022-10-18T21:34:15.768Z,99602.50
2022-10-18T21:36:44.485Z,99602.88
2022-10-18T21:39:15.102Z,99601.88
2022-10-18T21:41:42.785Z,99600.28
2022-10-18T21:44:10.802Z,99598.63
2022-10-18T21:46:39.261Z,99592.97
2022-10-18T21:49:07.198Z,99592.75
2022-10-18T21:51:33.987Z,99595.59
2022-10-18T21:54:00.651Z,99586.84
2022-10-18T21:56:36.450Z,99592.91
2022-10-18T21:59:04.039Z,99585.81
2022-10-18T22:01:33.460Z,99578.72
2022-10-18T22:04:01.444Z,99579.31
2022-10-18T22:06:30.201Z,99565.97
2022-10-18T22:08:59.394Z,99573.03
2022-10-18T22:11:29.662Z,99574.47
2022-10-18T22:13:56.420Z,99578.31
2022-10-18T22:16:23.612Z,99573.44
2022-10-18T22:18:51.096Z,99575.66
2022-10-18T22:21:20.484Z,99577.03
2022-10-18T22:23:57.725Z,99576.03
2022-10-18T22:26:38.773Z,99582.63
2022-10-18T22:29:12.098Z,99576.84
2022-10-18T22:31:41.438Z,99572.69
2022-10-18T22:34:11.366Z,99581.13
2022-10-18T22:36:37.918Z,99582.13
2022-10-18T22:39:05.660Z,99573.66
2022-10-18T22:41:34.656Z,99572.22
2022-10-18T22:44:03.534Z,99574.66
2022-10-18T22:46:31.573Z,99574.88
2022-10-18T22:48:57.934Z,99568.84
2022-10-18T22:51:24.414Z,99576.72
2022-10-18T22:53:50.880Z,99560.53
2022-10-18T22:56:19.933Z,99559.75
2022-10-18T22:58:46.440Z,99553.97
2022-10-18T23:01:15.366Z,99551.84
2022-10-18T23:03:42.278Z,99551.63
2022-10-18T23:06:31.725Z,99548.66
2022-10-18T23:08:59.920Z,99545.50
2022-10-18T23:11:28.296Z,99543.97
2022-10-18T23:13:54.928Z,99545.19
2022-10-18T23:16:21.884Z,99547.91
2022-10-18T23:18:58.759Z,99552.34
2022-10-18T23:21:28.252Z,99548.28
2022-10-18T23:23:56.334Z,99543.13
2022-10-18T23:26:25.757Z,99543.94
2022-10-18T23:28:53.890Z,99543.13
2022-10-18T23:31:29.808Z,99547.56
2022-10-18T23:33:58.722Z,99546.53
2022-10-18T23:36:25.203Z,99553.09
2022-10-18T23:38:52.357Z,99552.59
2022-10-18T23:41:19.428Z,99545.53
2022-10-18T23:43:46.179Z,99541.75
2022-10-18T23:46:14.760Z,99542.06
2022-10-18T23:48:41.438Z,99533.03
2022-10-18T23:51:08.792Z,99538.00
2022-10-18T23:53:35.779Z,99546.78
2022-10-18T23:56:05.182Z,99552.84
2022-10-18T23:58:33.256Z,99549.06
